createdAt,value
2023-03-19T00:03:13.567Z,11.27
2023-03-19T00:09:15.546Z,11.14
2023-03-19T00:15:17.310Z,11.13
2023-03-19T00:21:19.075Z,11.03
2023-03-19T00:27:20.928Z,10.81
2023-03-19T00:33:22.513Z,10.63
2023-03-19T00:39:24.091Z,10.44
2023-03-19T00:45:25.701Z,10.45
2023-03-19T00:51:27.211Z,10.40
2023-03-19T00:57:29.709Z,10.39
2023-03-19T01:03:31.309Z,10.31
2023-03-19T01:09:32.935Z,10.36
2023-03-19T01:15:42.145Z,10.25
2023-03-19T01:21:45.618Z,9.94
2023-03-19T01:27:50.717Z,9.94
2023-03-19T01:33:52.210Z,9.44
2023-03-19T01:40:15.445Z,9.83
2023-03-19T01:46:36.313Z,9.85
2023-03-19T01:52:57.222Z,9.71
2023-03-19T01:59:12.086Z,9.54
2023-03-19T02:05:28.979Z,9.50
2023-03-19T02:11:34.836Z,9.43
2023-03-19T02:17:38.923Z,9.20
2023-03-19T02:24:07.142Z,9.11
2023-03-19T02:30:35.515Z,8.92
2023-03-19T02:36:45.394Z,9.07
2023-03-19T02:42:46.936Z,9.10
2023-03-19T02:48:54.485Z,9.04
2023-03-19T02:54:56.085Z,8.91
2023-03-19T03:00:59.554Z,9.32
2023-03-19T03:07:01.736Z,9.28
2023-03-19T03:13:04.919Z,9.37
2023-03-19T03:19:06.549Z,9.23
2023-03-19T03:25:11.805Z,9.26
2023-03-19T03:31:13.793Z,9.03
2023-03-19T03:37:16.586Z,8.77
2023-03-19T03:43:20.171Z,8.71
2023-03-19T03:49:22.540Z,8.73
2023-03-19T03:55:27.592Z,8.83
2023-03-19T04:01:34.656Z,8.81
2023-03-19T04:07:39.696Z,8.85
2023-03-19T04:13:44.014Z,8.74
2023-03-19T04:19:45.484Z,8.59
2023-03-19T04:25:57.892Z,8.43
2023-03-19T04:32:05.601Z,8.48
2023-03-19T04:38:08.307Z,8.21
2023-03-19T04:44:12.991Z,7.96
2023-03-19T04:50:15.607Z,8.37
2023-03-19T04:56:18.130Z,8.23
2023-03-19T05:02:21.322Z,8.41
2023-03-19T05:08:24.876Z,8.63
2023-03-19T05:14:26.424Z,8.73
2023-03-19T05:20:38.071Z,8.66
2023-03-19T05:26:43.053Z,8.78
2023-03-19T05:33:00.026Z,8.60
2023-03-19T05:39:14.587Z,9.09
2023-03-19T05:45:18.918Z,9.05
2023-03-19T05:51:24.905Z,9.51
2023-03-19T05:57:26.740Z,9.63
2023-03-19T06:03:34.633Z,9.63
2023-03-19T06:09:41.258Z,9.74
2023-03-19T06:15:42.872Z,10.05
2023-03-19T06:21:44.602Z,10.38
2023-03-19T06:27:46.250Z,10.69
2023-03-19T06:33:55.832Z,10.87
2023-03-19T06:39:59.914Z,10.99
2023-03-19T06:46:04.263Z,11.29
2023-03-19T06:52:06.343Z,11.87
2023-03-19T06:58:08.010Z,12.07
2023-03-19T07:04:10.701Z,12.15
2023-03-19T07:10:13.138Z,12.27
2023-03-19T07:16:15.593Z,12.63
2023-03-19T07:22:17.635Z,12.72
2023-03-19T07:28:20.062Z,12.76
2023-03-19T07:34:22.484Z,13.12
2023-03-19T07:40:25.206Z,13.40
2023-03-19T07:46:27.682Z,13.63
2023-03-19T07:52:29.601Z,13.84
2023-03-19T07:58:31.122Z,14.22
2023-03-19T08:04:33.155Z,14.58
2023-03-19T08:10:37.457Z,15.10
2023-03-19T08:16:40.103Z,15.37
2023-03-19T08:22:42.429Z,15.47
2023-03-19T08:28:44.519Z,15.86
2023-03-19T08:34:49.013Z,15.94
2023-03-19T08:40:50.999Z,16.23
2023-03-19T08:46:52.680Z,16.46
2023-03-19T08:52:55.342Z,16.58
2023-03-19T08:58:57.337Z,16.57
2023-03-19T09:04:59.346Z,16.79
2023-03-19T09:11:01.433Z,16.94
2023-03-19T09:17:04.111Z,17.19
2023-03-19T09:23:05.872Z,17.17
2023-03-19T09:29:08.604Z,17.25
2023-03-19T09:35:10.223Z,17.50
2023-03-19T09:41:22.341Z,17.57
2023-03-19T09:47:28.231Z,17.76
2023-03-19T09:53:39.151Z,18.45
2023-03-19T09:59:40.762Z,18.85
2023-03-19T10:06:20.540Z,18.98
2023-03-19T10:12:26.144Z,19.73
2023-03-19T10:18:35.502Z,19.81
2023-03-19T10:24:40.077Z,19.78
2023-03-19T10:30:44.580Z,19.87
2023-03-19T10:36:46.301Z,19.83
2023-03-19T10:43:14.412Z,19.59
2023-03-19T10:49:16.241Z,19.48
2023-03-19T10:55:23.788Z,19.83
2023-03-19T11:01:35.770Z,19.82
2023-03-19T11:07:37.741Z,20.19
2023-03-19T11:13:39.514Z,21.04
2023-03-19T11:19:42.443Z,20.55
2023-03-19T11:25:55.342Z,20.64
2023-03-19T11:32:25.835Z,21.01
2023-03-19T11:38:35.692Z,20.98
2023-03-19T11:45:02.383Z,20.86
2023-03-19T11:51:16.663Z,21.18
2023-03-19T11:57:27.824Z,21.46
2023-03-19T12:03:44.646Z,21.27
2023-03-19T12:09:55.272Z,21.07
2023-03-19T12:16:16.417Z,21.30
2023-03-19T12:22:49.952Z,21.24
2023-03-19T12:29:05.961Z,21.31
2023-03-19T12:35:15.741Z,20.87
2023-03-19T12:41:21.524Z,21.50
2023-03-19T12:47:31.918Z,21.61
2023-03-19T12:53:50.080Z,21.62
2023-03-19T13:00:00.138Z,21.60
2023-03-19T13:06:08.594Z,21.93
2023-03-19T13:12:13.314Z,21.89
2023-03-19T13:18:45.687Z,22.18
2023-03-19T13:24:48.304Z,22.48
2023-03-19T13:31:04.587Z,22.94
2023-03-19T13:37:12.574Z,23.13
2023-03-19T13:43:37.398Z,23.66
2023-03-19T13:50:04.536Z,23.16
2023-03-19T13:56:26.562Z,23.31
2023-03-19T14:02:30.734Z,23.14
2023-03-19T14:08:43.001Z,22.75
2023-03-19T14:14:47.281Z,22.53
2023-03-19T14:21:01.505Z,22.85
2023-03-19T14:27:16.708Z,22.60
2023-03-19T14:33:41.268Z,22.31
2023-03-19T14:39:43.554Z,22.11
2023-03-19T14:46:03.416Z,21.94
2023-03-19T14:52:15.146Z,21.92
2023-03-19T14:58:23.592Z,22.04
2023-03-19T15:04:27.993Z,21.62
2023-03-19T15:10:38.085Z,21.76
2023-03-19T15:16:55.486Z,21.99
2023-03-19T15:23:00.563Z,22.37
2023-03-19T15:29:04.426Z,22.60
2023-03-19T15:35:10.419Z,22.29
2023-03-19T15:41:41.297Z,21.81
2023-03-19T15:48:13.592Z,21.58
2023-03-19T15:54:15.700Z,21.36
2023-03-19T16:00:17.954Z,21.38
2023-03-19T16:06:29.716Z,21.26
2023-03-19T16:12:39.179Z,20.52
2023-03-19T16:18:44.902Z,20.60
2023-03-19T16:24:47.617Z,20.57
2023-03-19T16:30:50.140Z,20.31
2023-03-19T16:36:51.990Z,20.42
2023-03-19T16:42:55.401Z,20.13
2023-03-19T16:48:57.112Z,19.99
2023-03-19T16:54:59.412Z,19.76
2023-03-19T17:01:02.426Z,19.58
2023-03-19T17:07:03.950Z,19.42
2023-03-19T17:13:07.408Z,19.20
2023-03-19T17:19:15.537Z,18.99
2023-03-19T17:25:20.228Z,18.76
2023-03-19T17:31:30.590Z,18.47
2023-03-19T17:37:32.295Z,18.28
2023-03-19T17:43:33.970Z,18.09
2023-03-19T17:49:35.500Z,17.78
2023-03-19T17:55:37.029Z,17.70
2023-03-19T18:01:42.390Z,17.59
2023-03-19T18:07:46.988Z,17.40
2023-03-19T18:13:48.817Z,17.38
2023-03-19T18:19:51.752Z,17.30
2023-03-19T18:25:53.516Z,17.19
2023-03-19T18:32:03.327Z,17.08
2023-03-19T18:38:35.217Z,17.06
2023-03-19T18:45:29.145Z,16.91
2023-03-19T18:52:00.678Z,16.74
2023-03-19T18:58:04.031Z,16.53
2023-03-19T19:04:06.395Z,16.38
2023-03-19T19:10:11.092Z,16.19
2023-03-19T19:16:20.498Z,16.23
2023-03-19T19:22:22.557Z,16.03
2023-03-19T19:28:27.263Z,15.90
2023-03-19T19:34:29.304Z,15.80
2023-03-19T19:40:31.148Z,15.77
2023-03-19T19:46:34.103Z,15.67
2023-03-19T19:52:37.041Z,15.54
2023-03-19T19:58:40.187Z,15.47
2023-03-19T20:04:41.790Z,15.29
2023-03-19T20:10:43.831Z,15.28
2023-03-19T20:16:46.640Z,15.17
2023-03-19T20:22:49.386Z,15.25
2023-03-19T20:28:51.695Z,15.29
2023-03-19T20:34:54.513Z,15.02
2023-03-19T20:40:56.966Z,15.14
2023-03-19T20:46:58.530Z,15.10
2023-03-19T20:53:03.021Z,14.94
2023-03-19T21:00:22.416Z,14.88
2023-03-19T21:07:53.187Z,14.87
2023-03-19T21:13:55.052Z,14.87
2023-03-19T21:19:56.882Z,14.76
2023-03-19T21:25:59.956Z,14.66
2023-03-19T21:32:01.559Z,14.59
2023-03-19T21:38:03.101Z,14.83
2023-03-19T21:44:13.601Z,14.57
2023-03-19T21:50:17.600Z,14.57
2023-03-19T21:56:34.767Z,14.40
2023-03-19T22:02:43.464Z,14.40
2023-03-19T22:08:47.473Z,14.25
2023-03-19T22:14:51.485Z,14.27
2023-03-19T22:20:53.941Z,14.27
2023-03-19T22:27:01.135Z,14.19
2023-03-19T22:33:14.053Z,14.02
2023-03-19T22:39:18.060Z,13.94
2023-03-19T22:45:29.806Z,13.79
2023-03-19T22:51:31.555Z,13.62
2023-03-19T22:57:33.120Z,13.55
2023-03-19T23:03:35.054Z,13.62
2023-03-19T23:09:37.162Z,13.59
2023-03-19T23:15:39.193Z,13.48
2023-03-19T23:21:41.150Z,13.57
2023-03-19T23:27:43.368Z,13.51
2023-03-19T23:33:48.025Z,13.60
2023-03-19T23:39:49.462Z,13.58
2023-03-19T23:45:51.779Z,13.56
2023-03-19T23:51:53.381Z,13.56
2023-03-19T23:57:55.994Z,13.64
